Time;durP1;ratioP1;P1;durP2;ratioP2;P2;SDS_P1;SDS_P2;PMS_P1;PMS_P2;Temp;Humidity;BMP_temperature;BMP_pressure;BME280_temperature;BME280_humidity;BME280_pressure;Samples;Min_cycle;Max_cycle;Signal;HPM_P1;HPM_P2
2022/04/17 12:17:59;;;;;;;2.65;1.15;;;22.20;51.80;;;;;;5059932;28;20533;-70
2022/04/17 12:20:25;;;;;;;2.42;1.08;;;21.60;51.90;;;;;;5046282;28;20048;-72
2022/04/17 12:22:52;;;;;;;1.73;1.02;;;21.20;53.20;;;;;;5043516;28;20069;-68
2022/04/17 12:25:23;;;;;;;3.22;1.20;;;20.70;51.60;;;;;;5045400;28;20029;-68
2022/04/17 12:27:50;;;;;;;3.67;1.50;;;21.20;51.40;;;;;;5042228;28;20066;-68
2022/04/17 12:30:26;;;;;;;3.85;1.13;;;20.90;50.50;;;;;;5041992;28;20021;-68
2022/04/17 12:32:59;;;;;;;2.95;1.05;;;20.80;50.80;;;;;;5042265;28;20483;-68
2022/04/17 12:35:33;;;;;;;1.90;1.00;;;21.10;52.00;;;;;;5040293;28;20354;-68
2022/04/17 12:38:04;;;;;;;3.80;1.40;;;21.50;51.10;;;;;;5037591;28;20045;-68
2022/04/17 12:40:31;;;;;;;3.05;1.10;;;21.30;50.80;;;;;;5048313;28;20024;-65
2022/04/17 12:43:17;;;;;;;1.23;0.90;;;21.70;51.40;;;;;;5045146;28;20044;-68
2022/04/17 12:45:56;;;;;;;2.40;1.00;;;21.50;51.10;;;;;;5041903;28;20040;-69
2022/04/17 12:48:27;;;;;;;4.15;1.40;;;21.60;52.10;;;;;;5037422;28;20119;-67
2022/04/17 12:50:57;;;;;;;2.20;1.00;;;21.10;51.10;;;;;;5040576;28;20391;-70
2022/04/17 12:53:23;;;;;;;2.22;1.00;;;21.40;51.60;;;;;;5029258;28;20025;-69
2022/04/17 12:55:52;;;;;;;1.50;0.90;;;21.50;51.50;;;;;;5042705;28;20041;-69
2022/04/17 12:58:18;;;;;;;2.28;0.98;;;21.70;52.10;;;;;;5043405;28;20048;-72
2022/04/17 13:00:59;;;;;;;2.65;1.20;;;21.60;51.10;;;;;;5040774;28;20017;-70
2022/04/17 13:03:35;;;;;;;3.38;1.25;;;21.20;52.20;;;;;;5041000;28;20037;-71
2022/04/17 13:06:03;;;;;;;2.85;1.00;;;21.20;52.90;;;;;;5041146;28;20431;-71
2022/04/17 13:08:29;;;;;;;4.68;1.20;;;21.20;53.00;;;;;;5041585;28;20029;-77
2022/04/17 13:10:55;;;;;;;2.95;1.30;;;21.40;51.10;;;;;;5026440;28;20029;-77
2022/04/17 13:13:37;;;;;;;2.83;1.00;;;21.50;52.10;;;;;;5044264;28;20037;-75
2022/04/17 13:16:04;;;;;;;3.00;0.90;;;21.50;52.40;;;;;;5041863;28;20369;-77
2022/04/17 13:18:34;;;;;;;2.85;1.27;;;21.40;51.70;;;;;;5041611;28;20151;-74
2022/04/17 13:21:00;;;;;;;5.63;1.00;;;21.00;53.90;;;;;;5041127;28;20365;-79
2022/04/17 13:23:26;;;;;;;4.57;1.10;;;21.50;50.40;;;;;;5041563;28;20036;-76
2022/04/17 13:25:52;;;;;;;2.53;0.90;;;21.40;53.20;;;;;;5041724;28;20029;-76
2022/04/17 13:28:17;;;;;;;2.75;1.02;;;21.60;50.70;;;;;;5031880;28;21316;-74
2022/04/17 13:30:43;;;;;;;2.63;0.98;;;21.40;51.00;;;;;;5025542;28;20134;-75
2022/04/17 13:33:09;;;;;;;4.55;1.10;;;21.20;51.50;;;;;;5024580;28;20052;-71
2022/04/17 13:35:34;;;;;;;2.97;1.20;;;21.40;53.00;;;;;;5021333;28;20430;-72
2022/04/17 13:38:12;;;;;;;2.92;1.00;;;21.50;52.60;;;;;;5023138;28;20034;-72
2022/04/17 13:40:38;;;;;;;2.83;1.10;;;21.60;53.20;;;;;;5025564;28;20120;-72
2022/04/17 13:43:04;;;;;;;4.18;1.33;;;21.00;53.60;;;;;;5024279;28;20029;-71
2022/04/17 13:45:30;;;;;;;2.08;1.10;;;21.20;52.50;;;;;;5025337;28;20025;-71
2022/04/17 13:47:55;;;;;;;2.65;1.10;;;21.50;52.00;;;;;;5021889;28;20430;-72
2022/04/17 13:50:21;;;;;;;8.07;1.30;;;21.20;51.90;;;;;;5019587;28;20029;-71
2022/04/17 13:52:47;;;;;;;2.58;0.90;;;21.10;52.00;;;;;;5024947;28;20458;-72
2022/04/17 13:55:18;;;;;;;3.30;1.30;;;21.30;51.70;;;;;;5030652;28;20057;-71
2022/04/17 13:57:48;;;;;;;2.25;1.00;;;21.40;51.50;;;;;;5024541;28;20084;-72
2022/04/17 14:00:16;;;;;;;2.50;1.02;;;21.60;53.00;;;;;;5023411;28;20128;-71
2022/04/17 14:02:42;;;;;;;2.50;1.17;;;21.60;51.80;;;;;;5022932;28;20069;-71
2022/04/17 14:05:08;;;;;;;2.95;1.20;;;21.50;51.00;;;;;;5023572;28;20041;-72
2022/04/17 14:07:35;;;;;;;3.70;1.20;;;20.90;52.60;;;;;;5025648;28;20025;-71
2022/04/17 14:10:01;;;;;;;3.13;1.17;;;21.30;54.40;;;;;;5024146;28;20344;-72
2022/04/17 14:12:28;;;;;;;3.20;1.30;;;21.50;54.00;;;;;;5022328;28;20029;-73
2022/04/17 14:14:57;;;;;;;3.13;1.10;;;21.50;54.10;;;;;;5021543;28;20032;-73
2022/04/17 14:17:24;;;;;;;3.35;1.20;;;21.30;53.90;;;;;;5022058;28;20052;-73
2022/04/17 14:19:51;;;;;;;3.30;1.20;;;21.20;53.40;;;;;;5023740;28;20036;-75
2022/04/17 14:22:17;;;;;;;2.10;0.98;;;21.20;54.40;;;;;;5025509;28;20132;-75
2022/04/17 14:24:43;;;;;;;3.58;1.20;;;21.20;53.90;;;;;;5022970;28;20911;-74
2022/04/17 14:27:09;;;;;;;2.58;1.20;;;21.10;54.20;;;;;;5022104;28;20112;-74
2022/04/17 14:29:34;;;;;;;3.13;1.40;;;21.50;54.50;;;;;;5021716;28;20059;-74
2022/04/17 14:32:00;;;;;;;3.13;1.10;;;22.30;53.60;;;;;;5022215;28;20053;-75
2022/04/17 14:34:26;;;;;;;4.05;1.20;;;22.30;54.20;;;;;;5026920;28;20518;-73
2022/04/17 14:36:51;;;;;;;4.03;1.27;;;23.30;52.30;;;;;;5021883;28;20080;-74
2022/04/17 14:39:17;;;;;;;3.78;1.20;;;25.90;51.30;;;;;;5020741;28;20033;-71
2022/04/17 14:41:44;;;;;;;3.15;1.20;;;28.50;48.70;;;;;;5023367;28;20029;-72
2022/04/17 14:44:11;;;;;;;2.97;1.23;;;30.80;45.70;;;;;;5022234;28;20780;-72
2022/04/17 14:46:37;;;;;;;2.80;1.27;;;30.10;44.90;;;;;;5024684;28;20037;-72
2022/04/17 14:49:03;;;;;;;4.60;1.45;;;28.20;45.60;;;;;;5023739;28;20075;-72
2022/04/17 14:51:28;;;;;;;6.07;1.52;;;28.20;47.40;;;;;;5022247;28;20342;-72
2022/04/17 14:53:54;;;;;;;4.65;1.13;;;29.60;46.40;;;;;;5021771;28;20490;-72
2022/04/17 14:56:20;;;;;;;4.35;1.30;;;28.60;45.60;;;;;;5022330;28;20037;-72
2022/04/17 14:58:47;;;;;;;5.00;1.23;;;30.20;46.10;;;;;;5022370;28;20033;-72
2022/04/17 15:01:13;;;;;;;3.00;1.20;;;30.60;45.30;;;;;;5024492;28;20036;-72
2022/04/17 15:03:41;;;;;;;2.13;1.10;;;29.20;45.20;;;;;;5022294;28;20021;-72
2022/04/17 15:06:07;;;;;;;3.67;1.10;;;26.60;48.80;;;;;;5021132;28;20120;-72
2022/04/17 15:08:33;;;;;;;3.65;1.13;;;24.70;51.70;;;;;;5020863;28;20026;-72
2022/04/17 15:10:58;;;;;;;4.22;1.15;;;23.80;52.30;;;;;;5023543;28;20022;-72
2022/04/17 15:13:24;;;;;;;4.20;1.23;;;23.30;53.80;;;;;;5019569;28;20021;-71
2022/04/17 15:15:50;;;;;;;5.40;1.30;;;22.90;53.80;;;;;;5029201;28;20041;-71
2022/04/17 15:18:16;;;;;;;4.07;1.52;;;22.30;55.10;;;;;;5027889;28;20128;-71
2022/04/17 15:20:43;;;;;;;3.85;1.30;;;22.20;55.90;;;;;;5028708;28;20087;-71
2022/04/17 15:23:09;;;;;;;2.92;1.15;;;22.50;54.60;;;;;;5028874;28;20025;-71
2022/04/17 15:25:36;;;;;;;3.58;1.20;;;22.20;56.40;;;;;;5028253;28;20032;-73
2022/04/17 15:28:02;;;;;;;7.25;1.20;;;22.20;56.30;;;;;;5028534;28;20137;-72
2022/04/17 15:30:28;;;;;;;5.15;1.30;;;21.60;56.80;;;;;;5029182;28;20053;-73
2022/04/17 15:32:55;;;;;;;4.35;1.10;;;21.50;57.00;;;;;;5028820;28;20033;-72
2022/04/17 15:35:22;;;;;;;4.82;1.52;;;21.20;56.80;;;;;;5028954;28;20025;-74
2022/04/17 15:37:47;;;;;;;3.63;1.48;;;21.60;58.50;;;;;;5028400;28;25559;-72
2022/04/17 15:40:14;;;;;;;5.47;1.45;;;22.10;58.50;;;;;;5027622;28;20025;-74
2022/04/17 15:42:42;;;;;;;3.90;1.10;;;21.50;57.70;;;;;;5027735;28;20083;-76
2022/04/17 15:47:57;;;;;;;6.22;1.38;;;21.00;58.60;;;;;;5029359;28;20032;-73
2022/04/17 15:50:30;;;;;;;6.50;1.40;;;21.00;59.00;;;;;;5028232;28;20021;-71
2022/04/17 15:52:59;;;;;;;4.25;1.15;;;20.90;58.90;;;;;;5011521;28;20078;-71
2022/04/17 15:55:25;;;;;;;11.90;1.50;;;21.10;59.00;;;;;;5023407;28;20576;-70
2022/04/17 15:57:53;;;;;;;6.50;1.35;;;21.30;59.50;;;;;;5027824;28;20047;-71
2022/04/17 16:00:19;;;;;;;3.80;1.30;;;21.20;57.10;;;;;;5027523;28;20017;-72
2022/04/17 16:02:44;;;;;;;5.45;1.25;;;21.20;58.40;;;;;;5028397;28;20025;-71
2022/04/17 16:05:11;;;;;;;2.83;1.23;;;21.20;56.80;;;;;;5028438;28;20033;-71
2022/04/17 16:07:39;;;;;;;3.45;1.20;;;21.00;57.20;;;;;;5028184;28;20025;-72
2022/04/17 16:10:09;;;;;;;5.45;1.10;;;20.80;58.30;;;;;;5031494;28;20037;-74
2022/04/17 16:12:36;;;;;;;5.22;1.52;;;21.00;57.90;;;;;;5031927;28;20486;-73
2022/04/17 16:15:03;;;;;;;4.20;1.40;;;20.90;57.90;;;;;;5032210;28;20104;-74
2022/04/17 16:17:31;;;;;;;6.18;1.50;;;21.10;58.70;;;;;;5031830;28;20067;-73
2022/04/17 16:19:58;;;;;;;2.67;1.23;;;21.10;58.00;;;;;;5016901;28;20100;-77
2022/04/17 16:22:26;;;;;;;3.10;1.20;;;20.80;57.70;;;;;;5030933;28;20028;-76
2022/04/17 16:24:52;;;;;;;4.57;1.20;;;20.60;57.90;;;;;;5032011;28;20064;-77
2022/04/17 16:27:18;;;;;;;3.55;1.10;;;20.50;59.10;;;;;;5033383;28;20537;-76
2022/04/17 16:29:47;;;;;;;6.60;1.48;;;20.60;58.80;;;;;;5033748;28;20029;-77
2022/04/17 16:32:13;;;;;;;7.38;1.55;;;20.50;59.70;;;;;;5032010;28;20068;-75
2022/04/17 16:34:39;;;;;;;6.88;1.50;;;20.40;59.90;;;;;;5031663;28;20049;-73
2022/04/17 16:37:05;;;;;;;3.70;1.30;;;20.20;59.30;;;;;;5031003;28;20034;-74
2022/04/17 16:39:31;;;;;;;4.97;1.60;;;20.10;60.10;;;;;;5032017;28;20068;-74
2022/04/17 16:41:56;;;;;;;4.75;1.45;;;20.10;60.60;;;;;;5030548;28;20033;-74
2022/04/17 16:44:22;;;;;;;5.70;1.40;;;20.10;62.00;;;;;;5030718;28;20022;-74
2022/04/17 16:46:48;;;;;;;6.07;2.00;;;20.10;61.30;;;;;;5031792;28;20041;-74
2022/04/17 16:49:17;;;;;;;7.75;1.67;;;20.20;62.40;;;;;;5031015;28;20089;-74
2022/04/17 16:51:42;;;;;;;6.50;1.60;;;20.30;63.50;;;;;;5031464;28;20037;-76
2022/04/17 16:54:09;;;;;;;4.80;1.45;;;20.20;63.90;;;;;;5031680;28;20018;-78
2022/04/17 16:56:34;;;;;;;11.93;1.75;;;20.10;63.10;;;;;;5031360;28;20046;-77
2022/04/17 16:59:12;;;;;;;6.93;1.50;;;20.00;63.70;;;;;;5032043;28;20048;-76
2022/04/17 17:01:47;;;;;;;6.70;1.80;;;20.00;64.20;;;;;;5030886;28;20033;-76
2022/04/17 17:04:15;;;;;;;2.75;1.20;;;20.00;64.00;;;;;;5032275;28;20029;-85
2022/04/17 17:06:41;;;;;;;3.25;1.30;;;19.60;63.90;;;;;;5034429;28;20026;-86
2022/04/17 17:09:07;;;;;;;4.43;1.60;;;19.60;63.60;;;;;;5035291;28;20029;-86
2022/04/17 17:11:34;;;;;;;4.35;1.45;;;19.40;63.60;;;;;;5034039;28;20022;-72
2022/04/17 17:14:00;;;;;;;4.50;1.60;;;19.30;64.50;;;;;;5035552;28;20028;-72
2022/04/17 17:16:26;;;;;;;4.18;1.38;;;19.40;65.30;;;;;;5034065;28;20062;-75
2022/04/17 17:18:52;;;;;;;4.55;1.58;;;19.30;65.70;;;;;;5034704;28;20029;-75
2022/04/17 17:21:18;;;;;;;7.55;1.50;;;19.10;66.90;;;;;;5034819;28;20025;-75
2022/04/17 17:23:46;;;;;;;5.75;1.63;;;18.90;68.20;;;;;;5068553;28;20041;-75
2022/04/17 17:26:12;;;;;;;4.22;1.63;;;19.00;68.40;;;;;;5035184;28;20490;-74
2022/04/17 17:28:38;;;;;;;4.22;1.70;;;19.00;67.70;;;;;;5034225;28;20052;-77
2022/04/17 17:31:05;;;;;;;4.30;1.40;;;18.80;67.30;;;;;;5034601;28;20040;-76
2022/04/17 17:33:30;;;;;;;7.85;1.70;;;18.70;69.00;;;;;;5034666;28;20033;-73
2022/04/17 17:36:03;;;;;;;5.53;1.42;;;18.80;69.80;;;;;;5035285;28;20037;-75
2022/04/17 17:38:31;;;;;;;6.30;1.80;;;18.70;70.70;;;;;;5034809;28;20164;-72
2022/04/17 17:40:57;;;;;;;5.63;1.50;;;18.50;70.70;;;;;;5018807;28;20110;-73
2022/04/17 17:43:22;;;;;;;6.93;1.80;;;18.40;71.80;;;;;;5033257;28;20057;-72
2022/04/17 17:45:48;;;;;;;5.60;1.73;;;18.50;71.60;;;;;;5033369;28;20055;-74
2022/04/17 17:48:14;;;;;;;9.90;1.90;;;18.20;72.90;;;;;;5034974;28;20033;-73
2022/04/17 17:50:40;;;;;;;5.35;1.60;;;18.20;72.60;;;;;;5034214;28;20108;-73
2022/04/17 17:53:06;;;;;;;5.88;1.50;;;18.20;73.90;;;;;;5033978;28;20033;-73
2022/04/17 17:55:31;;;;;;;5.75;1.77;;;18.10;74.00;;;;;;5033000;28;20026;-72
2022/04/17 17:57:59;;;;;;;4.43;1.50;;;18.10;74.60;;;;;;5034718;28;20072;-73
2022/04/17 18:00:25;;;;;;;3.80;1.90;;;18.10;75.60;;;;;;5034845;28;20398;-72
2022/04/17 18:02:51;;;;;;;6.28;1.90;;;18.10;75.80;;;;;;5034057;28;20029;-74
2022/04/17 18:05:17;;;;;;;5.93;1.50;;;18.00;76.20;;;;;;5034364;28;20505;-73
2022/04/17 18:15:56;;;;;;;6.85;1.92;;;17.60;80.00;;;;;;5035496;28;19967;-75
2022/04/17 18:18:21;;;;;;;5.72;1.77;;;17.40;80.60;;;;;;5033564;28;20030;-76
2022/04/17 18:20:49;;;;;;;6.05;1.92;;;17.40;81.70;;;;;;5034063;28;20056;-77
2022/04/17 18:23:17;;;;;;;8.73;2.47;;;17.30;82.50;;;;;;5034137;28;20036;-81
2022/04/17 18:25:43;;;;;;;6.35;1.85;;;17.30;83.50;;;;;;5032817;28;20033;-76
2022/04/17 18:28:09;;;;;;;5.40;1.80;;;17.20;83.70;;;;;;5030761;28;20029;-78
2022/04/17 18:30:36;;;;;;;6.97;2.03;;;17.10;84.80;;;;;;5033367;28;20025;-76
2022/04/17 18:33:02;;;;;;;6.35;1.80;;;17.10;85.40;;;;;;5033576;28;20065;-74
2022/04/17 18:35:28;;;;;;;7.93;2.10;;;17.00;86.10;;;;;;5033344;28;20036;-72
2022/04/17 18:37:54;;;;;;;6.68;2.40;;;16.90;87.20;;;;;;5033344;28;20049;-72
2022/04/17 18:40:20;;;;;;;7.68;2.28;;;16.70;88.30;;;;;;5033191;28;20029;-73
2022/04/17 18:42:46;;;;;;;6.68;2.30;;;16.80;89.20;;;;;;5031750;28;20179;-74
2022/04/17 18:45:12;;;;;;;7.05;2.92;;;16.70;89.80;;;;;;5031795;28;20096;-73
2022/04/17 18:47:38;;;;;;;10.70;2.92;;;16.80;89.90;;;;;;5032222;28;20529;-73
2022/04/17 18:50:05;;;;;;;6.05;2.30;;;16.80;90.10;;;;;;5033285;28;20501;-74
2022/04/17 18:52:31;;;;;;;6.47;2.50;;;16.70;90.30;;;;;;5031730;28;20029;-73
2022/04/17 18:54:58;;;;;;;6.93;4.07;;;16.70;90.60;;;;;;5033270;28;20368;-73
2022/04/17 18:57:25;;;;;;;8.30;3.55;;;16.70;90.80;;;;;;5033483;28;20033;-73
2022/04/17 18:59:51;;;;;;;7.75;2.10;;;16.60;91.20;;;;;;5033313;28;20060;-73
2022/04/17 19:02:16;;;;;;;11.10;1.83;;;16.50;91.50;;;;;;5033089;28;20548;-73
2022/04/17 19:04:42;;;;;;;9.52;2.13;;;16.50;91.90;;;;;;5032747;28;20029;-73
2022/04/17 19:07:08;;;;;;;7.78;2.40;;;16.50;92.20;;;;;;5034631;28;20022;-74
2022/04/17 19:09:34;;;;;;;6.60;2.10;;;16.50;92.50;;;;;;5032775;28;20044;-74
2022/04/17 19:14:45;;;;;;;7.88;2.05;;;16.40;93.30;;;;;;5033598;28;20442;-74
2022/04/17 19:17:10;;;;;;;7.45;1.95;;;16.30;93.70;;;;;;5032567;28;20073;-73
2022/04/17 19:19:37;;;;;;;8.07;2.13;;;16.30;93.90;;;;;;5032021;28;20026;-74
2022/04/17 19:22:03;;;;;;;9.30;2.28;;;16.30;94.30;;;;;;5033043;28;20442;-74
2022/04/17 19:24:29;;;;;;;6.03;2.08;;;16.40;94.50;;;;;;5032689;28;20048;-75
2022/04/17 19:26:56;;;;;;;8.32;2.10;;;16.40;94.50;;;;;;5031917;28;20034;-74
2022/04/17 19:29:21;;;;;;;7.00;2.00;;;16.40;94.60;;;;;;5031993;28;20029;-74
2022/04/17 19:37:16;;;;;;;6.50;2.20;;;16.40;95.00;;;;;;5030548;28;19966;-73
2022/04/17 19:39:42;;;;;;;6.45;2.42;;;16.40;95.20;;;;;;5032158;28;20041;-74
2022/04/17 19:42:12;;;;;;;9.10;2.30;;;16.40;95.30;;;;;;5032365;28;20463;-74
2022/04/17 19:44:38;;;;;;;8.82;2.50;;;16.30;95.30;;;;;;5031353;28;20105;-75
2022/04/17 19:47:05;;;;;;;6.60;2.53;;;16.30;95.80;;;;;;5032245;28;20430;-75
2022/04/17 19:49:31;;;;;;;7.28;2.72;;;16.20;96.00;;;;;;5031509;28;20530;-74
2022/04/17 19:51:57;;;;;;;11.25;3.38;;;16.20;96.20;;;;;;5032141;28;20022;-74
2022/04/17 19:54:23;;;;;;;7.22;2.53;;;16.20;96.20;;;;;;5032186;28;20482;-74
2022/04/17 19:56:51;;;;;;;8.75;2.58;;;16.20;96.20;;;;;;5032775;28;20080;-74
2022/04/17 19:59:18;;;;;;;10.00;2.63;;;16.20;96.30;;;;;;5031688;28;20446;-75
2022/04/17 20:01:45;;;;;;;10.60;2.80;;;16.10;96.40;;;;;;5032394;28;20033;-75
2022/04/17 20:04:12;;;;;;;10.95;2.38;;;16.10;96.50;;;;;;5029650;28;20453;-75
2022/04/17 20:06:37;;;;;;;8.15;2.53;;;16.10;96.40;;;;;;5032299;28;20031;-75
2022/04/17 20:09:05;;;;;;;5.93;2.38;;;16.10;96.40;;;;;;5032333;28;20108;-75
2022/04/17 20:11:34;;;;;;;7.28;2.22;;;16.10;96.30;;;;;;5032662;28;20510;-74
2022/04/17 20:14:00;;;;;;;12.40;2.28;;;16.10;96.00;;;;;;5016476;28;20025;-74
2022/04/17 20:16:27;;;;;;;8.15;2.17;;;16.10;96.20;;;;;;5027086;28;20041;-73
2022/04/17 20:18:53;;;;;;;8.65;2.30;;;16.10;96.00;;;;;;5032490;28;20030;-74
2022/04/17 20:21:20;;;;;;;8.90;2.50;;;16.10;95.70;;;;;;5032191;28;20030;-74
2022/04/17 20:23:46;;;;;;;7.38;2.03;;;16.10;95.70;;;;;;5033558;28;20038;-74
2022/04/17 20:26:12;;;;;;;7.53;1.98;;;16.00;95.70;;;;;;5032047;28;20025;-75
2022/04/17 20:28:38;;;;;;;7.05;2.28;;;16.00;95.80;;;;;;5030941;28;20405;-81
2022/04/17 20:31:04;;;;;;;12.00;2.97;;;16.00;95.80;;;;;;5031827;28;20025;-76
2022/04/17 20:33:30;;;;;;;7.00;2.80;;;16.00;95.90;;;;;;5020384;28;20022;-73
2022/04/17 20:35:57;;;;;;;9.82;2.70;;;16.00;95.90;;;;;;5024684;28;20022;-72
2022/04/17 20:38:23;;;;;;;11.60;3.17;;;16.00;95.90;;;;;;5025501;28;20501;-73
2022/04/17 20:40:52;;;;;;;8.93;2.80;;;15.90;96.00;;;;;;5034952;28;20557;-72
2022/04/17 20:51:30;;;;;;;9.30;3.20;;;16.00;96.00;;;;;;5036026;28;20086;-74
2022/04/17 20:53:56;;;;;;;10.73;2.80;;;15.90;96.20;;;;;;5035831;28;20026;-74
2022/04/17 20:56:21;;;;;;;7.88;2.42;;;15.80;96.20;;;;;;5033967;28;20041;-74
2022/04/17 20:58:47;;;;;;;6.25;2.05;;;15.80;96.50;;;;;;5035483;28;20045;-74
2022/04/17 21:01:17;;;;;;;4.68;1.90;;;15.80;96.60;;;;;;5034739;28;20018;-74
2022/04/17 21:03:43;;;;;;;8.00;2.47;;;15.80;96.60;;;;;;5036337;28;20109;-73
2022/04/17 21:06:09;;;;;;;6.72;2.10;;;15.80;96.60;;;;;;5035658;28;20159;-73
2022/04/17 21:08:34;;;;;;;9.90;2.58;;;15.70;96.80;;;;;;5035275;28;20483;-73
2022/04/17 21:11:00;;;;;;;8.05;2.15;;;15.70;97.00;;;;;;5035332;28;20033;-73
2022/04/17 21:13:26;;;;;;;6.43;2.10;;;15.70;97.10;;;;;;5030207;28;20486;-73
2022/04/17 21:15:51;;;;;;;6.07;2.28;;;15.60;97.30;;;;;;5034894;28;20061;-73
2022/04/17 21:18:17;;;;;;;6.75;1.95;;;15.60;97.60;;;;;;5034784;28;20037;-73
2022/04/17 21:20:45;;;;;;;7.97;2.20;;;15.50;97.80;;;;;;5034721;28;20049;-73
2022/04/17 21:23:12;;;;;;;8.60;2.17;;;15.60;97.90;;;;;;5035086;28;20491;-72
2022/04/17 21:25:38;;;;;;;9.77;2.15;;;15.60;98.00;;;;;;5033730;28;20025;-73
2022/04/17 21:28:03;;;;;;;8.93;2.22;;;15.70;98.60;;;;;;5034236;28;20083;-73
2022/04/17 21:30:29;;;;;;;8.75;2.80;;;15.70;98.30;;;;;;5034566;28;20021;-73
2022/04/17 21:32:58;;;;;;;8.30;3.03;;;15.70;98.20;;;;;;5034664;28;20033;-73
2022/04/17 21:35:24;;;;;;;5.82;2.50;;;15.70;98.30;;;;;;5034791;28;20079;-73
2022/04/17 21:37:50;;;;;;;8.25;2.67;;;15.70;98.80;;;;;;5027348;28;20392;-73
2022/04/17 21:40:16;;;;;;;8.77;2.60;;;15.70;98.30;;;;;;5033272;28;20025;-73
2022/04/17 21:42:41;;;;;;;9.77;2.70;;;15.70;98.40;;;;;;5035474;28;20037;-73
2022/04/17 21:45:07;;;;;;;10.13;2.95;;;15.70;98.60;;;;;;5028656;28;20160;-73
2022/04/17 21:47:33;;;;;;;9.18;2.50;;;15.70;98.30;;;;;;5020694;28;20070;-74
2022/04/17 21:49:59;;;;;;;6.80;2.10;;;15.50;98.70;;;;;;5027561;28;20453;-73
2022/04/17 21:52:25;;;;;;;8.82;2.78;;;15.50;99.10;;;;;;5030615;28;20021;-73
2022/04/17 21:54:50;;;;;;;7.75;2.50;;;15.60;99.00;;;;;;5021878;28;20026;-73
2022/04/17 21:57:16;;;;;;;10.48;2.88;;;15.60;98.90;;;;;;5022278;28;20041;-73
2022/04/17 22:05:10;;;;;;;9.48;2.65;;;15.40;99.50;;;;;;5014204;28;20084;-73
2022/04/17 22:07:36;;;;;;;7.05;2.40;;;15.50;99.70;;;;;;5029606;28;20045;-72
2022/04/17 22:10:03;;;;;;;7.85;2.20;;;15.60;99.60;;;;;;5027853;28;20030;-73
2022/04/17 22:12:29;;;;;;;10.35;2.28;;;15.60;99.50;;;;;;5025132;28;20057;-73
2022/04/17 22:14:55;;;;;;;6.65;3.28;;;15.40;99.80;;;;;;5028436;28;20581;-73
2022/04/17 22:17:21;;;;;;;7.32;2.17;;;15.50;99.80;;;;;;5026509;28;20049;-73
2022/04/17 22:19:46;;;;;;;9.52;2.53;;;15.40;99.80;;;;;;5029406;28;20107;-73
2022/04/17 22:22:13;;;;;;;7.30;2.38;;;15.30;99.90;;;;;;5028343;28;20095;-73
2022/04/17 22:24:40;;;;;;;6.28;2.10;;;15.30;99.90;;;;;;5026303;28;20041;-73
2022/04/17 22:27:06;;;;;;;7.43;2.30;;;15.20;99.90;;;;;;5027258;28;20088;-73
2022/04/17 22:29:32;;;;;;;8.70;1.90;;;15.20;99.90;;;;;;5026866;28;20049;-73
2022/04/17 22:31:57;;;;;;;8.50;2.20;;;15.20;99.90;;;;;;5028415;28;20065;-75
2022/04/17 22:34:23;;;;;;;9.20;2.38;;;15.10;99.90;;;;;;5030774;28;20461;-74
2022/04/17 22:36:49;;;;;;;7.47;2.13;;;15.10;99.90;;;;;;5026553;28;20076;-75
2022/04/17 22:39:15;;;;;;;9.05;2.60;;;15.10;99.90;;;;;;5026449;28;20026;-75
2022/04/17 22:41:41;;;;;;;11.40;2.38;;;15.10;99.90;;;;;;5026833;28;20040;-75
2022/04/17 22:44:06;;;;;;;7.20;2.30;;;15.10;99.90;;;;;;5028038;28;20109;-74
2022/04/17 22:46:32;;;;;;;8.57;2.65;;;14.90;99.90;;;;;;5029893;28;20034;-75
2022/04/17 22:48:58;;;;;;;5.50;2.30;;;14.90;99.90;;;;;;5026628;28;20029;-75
2022/04/17 22:51:24;;;;;;;6.95;2.00;;;14.90;99.90;;;;;;5028293;28;20074;-74
2022/04/17 22:53:49;;;;;;;10.05;2.25;;;15.10;99.90;;;;;;5025341;28;20104;-74
2022/04/17 22:56:15;;;;;;;5.80;2.13;;;15.00;99.90;;;;;;5022501;28;20125;-74
2022/04/17 22:58:42;;;;;;;7.85;2.40;;;15.10;99.90;;;;;;5028699;28;20037;-75
2022/04/17 23:01:10;;;;;;;8.95;2.03;;;14.90;99.90;;;;;;5021786;28;20384;-74
2022/04/17 23:03:37;;;;;;;9.88;2.40;;;14.90;99.90;;;;;;5023826;28;20038;-74
2022/04/17 23:06:03;;;;;;;8.18;2.28;;;14.90;99.90;;;;;;5026425;28;20078;-74
2022/04/17 23:08:29;;;;;;;6.82;2.00;;;14.80;99.90;;;;;;5025818;28;20025;-74
2022/04/17 23:10:55;;;;;;;6.90;2.40;;;14.90;99.90;;;;;;5026622;28;20028;-74
2022/04/17 23:13:20;;;;;;;7.05;2.85;;;14.80;99.90;;;;;;5027429;28;20025;-75
2022/04/17 23:15:47;;;;;;;9.63;3.90;;;14.50;99.90;;;;;;5025978;28;20072;-75
2022/04/17 23:18:13;;;;;;;11.95;3.20;;;14.20;99.90;;;;;;5027437;28;20084;-74
2022/04/17 23:20:39;;;;;;;11.40;2.78;;;14.10;99.90;;;;;;5025556;28;20018;-74
2022/04/17 23:23:06;;;;;;;11.52;3.30;;;13.90;99.90;;;;;;5025700;28;20038;-75
2022/04/17 23:25:34;;;;;;;9.20;3.75;;;13.70;99.90;;;;;;5029069;28;20376;-74
2022/04/17 23:28:00;;;;;;;7.00;3.65;;;13.70;99.90;;;;;;5026731;28;20029;-74
2022/04/17 23:30:26;;;;;;;10.80;3.85;;;13.70;99.90;;;;;;5025884;28;20713;-74
2022/04/17 23:32:55;;;;;;;9.18;3.20;;;13.70;99.90;;;;;;5025411;28;20029;-75
2022/04/17 23:35:24;;;;;;;8.90;2.95;;;13.60;99.90;;;;;;5025737;28;20037;-74
2022/04/17 23:37:50;;;;;;;8.50;3.00;;;13.60;99.90;;;;;;5027259;28;20418;-74
2022/04/17 23:40:17;;;;;;;10.13;3.10;;;13.60;99.90;;;;;;5029690;28;20441;-74
2022/04/17 23:42:42;;;;;;;8.80;3.50;;;13.50;99.90;;;;;;5028480;28;20033;-74
2022/04/17 23:45:09;;;;;;;7.70;3.20;;;13.50;99.90;;;;;;5030341;28;20075;-74
2022/04/17 23:47:35;;;;;;;8.75;3.03;;;13.40;99.90;;;;;;5032640;28;20029;-74
2022/04/17 23:50:07;;;;;;;7.38;2.85;;;13.50;99.90;;;;;;5032489;28;20029;-74
2022/04/17 23:52:37;;;;;;;8.90;3.28;;;13.40;99.90;;;;;;5031231;28;20398;-75
2022/04/17 23:55:04;;;;;;;9.57;3.40;;;13.40;99.90;;;;;;5032840;28;20025;-74
2022/04/17 23:57:30;;;;;;;8.25;3.53;;;13.40;99.90;;;;;;5032569;28;20482;-74
2022/04/17 23:59:56;;;;;;;11.85;3.83;;;13.50;99.90;;;;;;5032135;28;20556;-74
